Portada
METAR-TAF:

METAR-TAF

Aeroports :

Bombai, Índia

latitud: 19-07N, longitud: 072-51E, altitud: 8 m

Observació

L'informe es va fer fa 29 minuts, a les 06:30 UTC
Vent 4 kt del Est
Temperatura 32°C
Humitat 32%
Pressió 1016 hPa
Visibilitat: 2500 m
fum

METAR: VABB 200630Z 09004KT 2500 FU NSC 32/13 Q1016 NOSIG

Hora: 12:29 (06:59 UTC)

Pronòstic

L'informe es va fer fa 1 hora i 59 minuts, a les 05:00 UTC
Pronòstic vàlid del 20 a les 06 UTC al 20 a les 15 UTC
Vent 6 kt del Est/Sud-Est
Visibilitat: 2500 m
fum
Evolucionant progressivament
l' 20 a les 08 UTC al 20 a les 10 UTC
Vent 8 kt del Oest
Evolucionant progressivament
l' 20 a les 13 UTC al 20 a les 15 UTC
Vent 6 kt del Nord/Nord-Oest

TAF: VABB 200500Z 2006/2015 12006KT 2500 FU NSC BECMG 2008/2010 28008KT BECMG 2013/2015 34006KT

Observacions i pronòstics meteorològics de més de 4000 aeroports (METAR i TAF).

Les estacions disponibles són els punts grocs i vermells al mapa.

Posi el ratolí al punt desitjat per veure el nom de l'estació.

Feu clic per veure les observacions i els pronòstics meteorològics.

Per canviar el mapa: feu clic els botons verds amb una creu de color negre per apropar; al botó verd amb un guió per allunyar la imatge; o en les fletxes verdes per a mapes adjacents.


METAR-TAF: